Time;durP1;ratioP1;P1;durP2;ratioP2;P2;SDS_P1;SDS_P2;PMS_P1;PMS_P2;Temp;Humidity;BMP_temperature;BMP_pressure;BME280_temperature;BME280_humidity;BME280_pressure;Samples;Min_cycle;Max_cycle;Signal;HPM_P1;HPM_P2
2022/04/10 00:02:03;;;;;;;23.52;5.78;;;;;;;18.28;56.63;99431.00;5013554;28;20491;-80
2022/04/10 00:04:29;;;;;;;19.70;5.47;;;;;;;18.29;56.58;99421.78;5013659;28;20057;-81
2022/04/10 00:06:54;;;;;;;24.10;5.00;;;;;;;18.34;56.62;99430.19;5013528;28;20018;-80
2022/04/10 00:09:20;;;;;;;15.73;4.97;;;;;;;18.35;56.50;99423.69;5013285;28;20033;-80
2022/04/10 00:11:45;;;;;;;23.25;5.25;;;;;;;18.41;56.44;99425.59;5012151;28;20138;-81
2022/04/10 00:14:11;;;;;;;22.02;4.85;;;;;;;18.44;56.16;99430.63;5013333;28;20025;-80
2022/04/10 00:16:36;;;;;;;30.52;5.90;;;;;;;18.50;55.98;99428.19;5013686;28;20028;-78
2022/04/10 00:19:04;;;;;;;20.13;4.93;;;;;;;18.48;56.01;99429.19;5013381;28;20033;-79
2022/04/10 00:21:33;;;;;;;18.92;5.30;;;;;;;18.46;56.16;99423.13;5014287;28;20376;-78
2022/04/10 00:23:59;;;;;;;20.52;5.43;;;;;;;18.50;56.05;99426.28;5013088;28;20030;-79
2022/04/10 00:26:24;;;;;;;20.70;5.53;;;;;;;18.46;56.05;99423.13;5013542;28;20094;-79
2022/04/10 00:28:53;;;;;;;27.00;6.35;;;;;;;18.52;56.07;99434.25;5013176;28;20034;-79
2022/04/10 00:31:19;;;;;;;20.13;5.20;;;;;;;18.52;55.90;99421.50;5013672;28;20029;-79
2022/04/10 00:33:44;;;;;;;14.48;4.60;;;;;;;18.57;55.93;99429.88;5013351;28;20079;-79
2022/04/10 00:36:10;;;;;;;16.00;5.80;;;;;;;18.54;55.96;99434.88;5013762;28;20480;-78
2022/04/10 00:38:35;;;;;;;24.65;5.90;;;;;;;18.53;55.60;99425.88;5014227;28;20137;-79
2022/04/10 00:41:01;;;;;;;20.67;6.18;;;;;;;18.41;55.98;99417.44;5028122;28;20111;-79
2022/04/10 00:43:32;;;;;;;20.63;4.60;;;;;;;18.39;56.24;99427.69;5023341;28;20030;-79
2022/04/10 00:46:01;;;;;;;24.88;5.50;;;;;;;18.42;56.12;99431.88;5013735;28;20030;-80
2022/04/10 00:48:27;;;;;;;18.48;4.63;;;;;;;18.37;56.26;99421.63;5011257;28;20404;-80
2022/04/10 00:53:39;;;;;;;18.15;5.63;;;;;;;18.33;56.46;99423.06;5012884;28;20041;-80
2022/04/10 00:56:04;;;;;;;18.30;4.75;;;;;;;18.33;56.42;99428.50;5012773;28;20113;-79
2022/04/10 00:58:31;;;;;;;20.48;4.57;;;;;;;18.28;56.48;99419.28;5012913;28;20662;-79
2022/04/10 01:00:56;;;;;;;20.33;5.82;;;;;;;18.28;56.65;99422.00;5019225;28;20280;-79
2022/04/10 01:03:22;;;;;;;18.02;4.85;;;;;;;18.21;56.72;99419.25;5013035;28;20030;-79
2022/04/10 01:05:47;;;;;;;23.17;5.15;;;;;;;18.17;56.81;99420.69;5012724;28;20030;-80
2022/04/10 01:08:14;;;;;;;24.38;5.00;;;;;;;18.13;56.94;99407.72;5012479;28;20030;-80
2022/04/10 01:10:41;;;;;;;24.23;6.07;;;;;;;18.06;57.07;99424.00;5011750;28;20049;-81
2022/04/10 01:13:07;;;;;;;43.03;8.85;;;;;;;17.98;57.42;99410.53;5012684;28;20066;-80
2022/04/10 01:15:33;;;;;;;45.35;8.82;;;;;;;17.97;57.41;99421.66;5012937;28;20113;-79
2022/04/10 01:17:59;;;;;;;25.27;8.15;;;;;;;17.94;57.56;99418.31;5012979;28;20037;-81
2022/04/10 01:20:25;;;;;;;30.95;10.02;;;;;;;17.89;57.47;99414.47;5012686;28;20040;-80
2022/04/10 01:22:51;;;;;;;33.38;8.77;;;;;;;17.87;57.69;99422.00;5012577;28;20117;-79
2022/04/10 01:25:16;;;;;;;41.28;12.00;;;;;;;17.81;57.65;99425.53;5011265;28;20475;-78
2022/04/10 01:27:42;;;;;;;48.17;12.48;;;;;;;17.81;57.64;99422.81;5011826;28;20091;-78
2022/04/10 01:30:10;;;;;;;33.00;10.45;;;;;;;17.74;57.86;99425.50;5012387;28;20068;-78
2022/04/10 01:32:36;;;;;;;44.55;11.55;;;;;;;17.71;58.00;99412.28;5012646;28;20466;-78
2022/04/10 01:35:03;;;;;;;33.22;9.48;;;;;;;17.71;58.39;99419.59;5012453;28;20054;-78
2022/04/10 01:37:31;;;;;;;41.30;8.55;;;;;;;17.68;58.23;99422.72;5012270;28;20030;-79
2022/04/10 01:39:57;;;;;;;43.38;9.30;;;;;;;17.65;58.59;99420.41;5012375;28;20132;-79
2022/04/10 01:42:22;;;;;;;37.33;8.55;;;;;;;17.57;58.73;99420.56;5012323;28;20105;-79
2022/04/10 01:44:48;;;;;;;33.25;8.23;;;;;;;17.57;58.85;99421.41;5012278;28;20033;-79
2022/04/10 01:47:14;;;;;;;29.88;8.23;;;;;;;17.56;58.78;99414.28;5012562;28;20033;-79
2022/04/10 01:49:39;;;;;;;24.63;6.80;;;;;;;17.48;59.13;99410.84;5012321;28;20037;-79
2022/04/10 01:52:05;;;;;;;31.75;8.90;;;;;;;17.48;59.21;99410.84;5044483;28;20040;-79
2022/04/10 01:54:31;;;;;;;25.75;8.30;;;;;;;17.50;59.17;99414.22;5012131;28;20457;-79
2022/04/10 01:56:57;;;;;;;36.78;8.13;;;;;;;17.49;59.36;99415.25;5012077;28;20484;-79
2022/04/10 01:59:22;;;;;;;29.83;7.65;;;;;;;17.49;59.29;99409.84;5012713;28;20425;-79
2022/04/10 02:01:48;;;;;;;26.08;6.55;;;;;;;17.56;59.24;99414.28;5012218;28;20036;-79
2022/04/10 02:04:14;;;;;;;19.75;6.53;;;;;;;17.50;59.14;99411.50;5012006;28;20462;-79
2022/04/10 02:06:40;;;;;;;30.08;7.50;;;;;;;17.57;58.90;99415.13;5012688;28;20044;-79
2022/04/10 02:09:07;;;;;;;23.00;6.80;;;;;;;17.60;58.71;99417.47;5012292;28;20112;-76
2022/04/10 02:11:33;;;;;;;22.63;6.38;;;;;;;17.60;58.83;99420.16;5010564;28;20049;-76
2022/04/10 02:13:58;;;;;;;33.88;6.82;;;;;;;17.60;58.83;99420.16;5015270;28;20040;-74
2022/04/10 02:16:23;;;;;;;24.40;6.55;;;;;;;17.61;58.77;99419.16;5024305;28;20029;-75
2022/04/10 02:18:49;;;;;;;22.90;6.97;;;;;;;17.62;58.69;99418.94;5024682;28;20133;-74
2022/04/10 02:21:15;;;;;;;28.02;7.40;;;;;;;17.63;58.76;99419.78;5024671;28;20072;-75
2022/04/10 02:23:41;;;;;;;39.78;7.72;;;;;;;17.60;58.76;99418.31;5017824;28;20044;-76
2022/04/10 02:26:10;;;;;;;28.02;7.88;;;;;;;17.59;59.11;99407.59;5014672;28;20034;-75
2022/04/10 02:28:36;;;;;;;29.17;6.72;;;;;;;17.58;58.82;99406.78;5014994;28;20047;-76
2022/04/10 02:31:01;;;;;;;21.67;6.97;;;;;;;17.58;58.70;99397.78;5001783;28;20420;-76
2022/04/10 02:33:27;;;;;;;29.95;6.45;;;;;;;17.65;58.79;99399.50;5019179;28;20089;-76
2022/04/10 02:35:52;;;;;;;28.75;7.20;;;;;;;17.62;58.75;99390.91;5031080;28;20558;-76
2022/04/10 02:38:18;;;;;;;20.48;7.10;;;;;;;17.62;58.76;99390.91;5015153;28;20479;-75
2022/04/10 02:40:44;;;;;;;20.98;7.03;;;;;;;17.63;58.76;99382.56;5014992;28;20480;-75
2022/04/10 02:43:14;;;;;;;22.50;6.80;;;;;;;17.69;58.52;99383.63;5013629;28;20026;-75
2022/04/10 02:45:40;;;;;;;14.10;5.65;;;;;;;17.68;58.53;99393.66;5014048;28;20030;-75
2022/04/10 02:48:07;;;;;;;18.45;5.50;;;;;;;17.68;58.63;99390.94;5014054;28;20089;-75
2022/04/10 02:50:32;;;;;;;28.40;7.35;;;;;;;17.67;58.69;99396.59;5014031;28;20042;-76
2022/04/10 02:52:57;;;;;;;20.02;6.60;;;;;;;17.69;58.77;99403.50;5013869;28;20030;-77
2022/04/10 02:55:23;;;;;;;25.23;6.75;;;;;;;17.73;58.60;99409.38;5013670;28;20083;-76
2022/04/10 02:57:48;;;;;;;23.05;6.35;;;;;;;17.79;58.48;99424.91;5013524;28;20041;-76
2022/04/10 03:00:14;;;;;;;26.30;7.90;;;;;;;17.78;58.45;99434.09;5013293;28;20026;-76
2022/04/10 03:02:40;;;;;;;23.23;7.38;;;;;;;17.75;58.46;99442.66;5013653;28;20057;-76
2022/04/10 03:05:09;;;;;;;18.92;7.18;;;;;;;17.78;58.38;99444.97;5013662;28;20126;-76
2022/04/10 03:07:35;;;;;;;37.70;10.77;;;;;;;17.66;58.33;99444.69;5013135;28;20068;-76
2022/04/10 03:10:01;;;;;;;33.63;13.70;;;;;;;17.58;58.41;99454.88;5012848;28;20127;-76
2022/04/10 03:12:26;;;;;;;38.05;16.73;;;;;;;17.43;58.27;99466.66;5013247;28;20137;-76
2022/04/10 03:14:51;;;;;;;47.25;20.42;;;;;;;17.07;58.30;99476.78;5013583;28;20034;-77
2022/04/10 03:17:17;;;;;;;54.65;22.13;;;;;;;16.62;59.87;99490.72;5013612;28;20034;-76
2022/04/10 03:19:42;;;;;;;46.58;19.77;;;;;;;16.30;60.83;99500.09;5013428;28;20030;-76
2022/04/10 03:22:08;;;;;;;46.70;18.92;;;;;;;16.27;60.73;99503.19;5012853;28;20026;-76
2022/04/10 03:24:33;;;;;;;62.85;23.13;;;;;;;16.26;60.58;99505.06;5012845;28;20461;-76
2022/04/10 03:26:59;;;;;;;60.08;19.42;;;;;;;16.27;60.46;99504.03;5013657;28;20022;-76
2022/04/10 03:29:24;;;;;;;63.50;22.27;;;;;;;16.16;61.09;99511.81;5013374;28;20462;-76
2022/04/10 03:31:50;;;;;;;56.50;20.17;;;;;;;16.11;61.46;99508.81;5012724;28;20030;-76
2022/04/10 03:34:15;;;;;;;58.20;18.77;;;;;;;16.03;61.49;99501.59;5013441;28;20109;-75
2022/04/10 03:36:40;;;;;;;50.30;20.40;;;;;;;15.88;61.97;99500.75;5013246;28;20029;-76
2022/04/10 03:39:06;;;;;;;51.85;18.75;;;;;;;15.94;62.31;99502.72;5013033;28;20037;-76
2022/04/10 03:41:31;;;;;;;52.85;18.77;;;;;;;15.96;62.35;99500.66;5012559;28;20072;-75
2022/04/10 03:43:57;;;;;;;40.88;17.80;;;;;;;16.00;62.42;99501.97;5012603;28;20030;-76
2022/04/10 03:46:22;;;;;;;52.47;18.08;;;;;;;15.95;62.31;99492.72;5012721;28;20037;-76
2022/04/10 03:48:47;;;;;;;35.65;15.35;;;;;;;15.87;62.42;99480.09;5012659;28;20025;-76
2022/04/10 03:51:13;;;;;;;51.33;15.18;;;;;;;15.96;63.21;99495.22;5012441;28;20076;-76
2022/04/10 03:53:38;;;;;;;35.72;11.45;;;;;;;15.95;63.19;99492.72;5013058;28;20096;-76
2022/04/10 03:56:04;;;;;;;42.65;11.80;;;;;;;16.03;63.36;99498.88;5012851;28;20030;-76
2022/04/10 03:58:29;;;;;;;32.45;10.05;;;;;;;16.11;63.54;99514.25;5012684;28;20109;-76
2022/04/10 04:00:56;;;;;;;37.33;10.88;;;;;;;16.22;63.51;99519.19;5012546;28;20108;-76
2022/04/10 04:03:22;;;;;;;30.00;10.60;;;;;;;16.26;63.56;99512.38;5012397;28;20053;-76
2022/04/10 04:05:47;;;;;;;34.17;9.23;;;;;;;16.36;63.37;99517.50;5012848;28;20044;-76
2022/04/10 04:08:15;;;;;;;36.72;9.35;;;;;;;16.46;63.00;99513.44;5011220;28;20031;-75
2022/04/10 04:10:41;;;;;;;25.38;9.15;;;;;;;16.58;62.82;99516.56;5012101;28;20101;-77
2022/04/10 04:13:06;;;;;;;25.40;7.57;;;;;;;16.61;62.62;99510.72;5012748;28;20049;-77
2022/04/10 04:15:32;;;;;;;20.27;7.25;;;;;;;16.75;62.21;99518.03;5011306;28;20040;-76
2022/04/10 04:17:57;;;;;;;24.42;9.35;;;;;;;16.83;62.18;99512.47;5012450;28;20025;-77
2022/04/10 04:20:23;;;;;;;30.35;7.35;;;;;;;16.95;61.93;99508.22;5012362;28;20033;-77
2022/04/10 04:22:48;;;;;;;23.88;7.20;;;;;;;17.05;61.72;99511.47;5012342;28;20384;-77
2022/04/10 04:25:14;;;;;;;24.83;8.35;;;;;;;17.13;61.58;99513.19;5012411;28;20488;-76
2022/04/10 04:27:40;;;;;;;35.15;8.07;;;;;;;17.25;61.09;99503.47;5022301;28;20030;-75
2022/04/10 04:30:06;;;;;;;26.35;7.68;;;;;;;17.34;60.71;99499.59;5018880;28;20147;-75
2022/04/10 04:32:31;;;;;;;28.90;7.57;;;;;;;17.34;60.35;99502.31;5013175;28;20136;-76
2022/04/10 04:34:57;;;;;;;32.97;8.18;;;;;;;17.40;60.25;99496.94;5011090;28;20108;-76
2022/04/10 04:37:22;;;;;;;32.60;8.15;;;;;;;17.45;60.13;99492.81;5011805;28;20153;-76
2022/04/10 04:39:48;;;;;;;41.53;9.38;;;;;;;17.47;60.23;99490.72;5011723;28;20159;-76
2022/04/10 04:42:14;;;;;;;25.40;7.55;;;;;;;17.47;60.00;99485.28;5012179;28;20033;-76
2022/04/10 04:44:39;;;;;;;36.70;8.88;;;;;;;17.49;60.14;99494.09;5011623;28;20032;-76
2022/04/10 04:47:05;;;;;;;42.13;8.50;;;;;;;17.53;60.21;99500.81;5012275;28;20044;-76
2022/04/10 04:49:30;;;;;;;26.80;7.90;;;;;;;17.59;60.14;99489.16;5011573;28;20092;-76
2022/04/10 04:51:56;;;;;;;29.50;8.70;;;;;;;17.60;59.89;99482.72;5012148;28;20503;-76
2022/04/10 04:54:21;;;;;;;24.05;7.50;;;;;;;17.67;59.69;99500.78;5010717;28;20045;-76
2022/04/10 04:56:47;;;;;;;28.55;7.70;;;;;;;17.74;59.29;99488.03;5011815;28;20116;-76
2022/04/10 04:59:14;;;;;;;27.33;8.95;;;;;;;17.83;59.20;99503.16;5011340;28;20487;-76
2022/04/10 05:01:41;;;;;;;35.15;9.35;;;;;;;17.88;59.09;99491.69;5011166;28;20030;-76
2022/04/10 05:04:07;;;;;;;37.22;9.98;;;;;;;17.89;58.78;99491.50;5011936;28;20034;-76
2022/04/10 05:06:33;;;;;;;31.90;8.40;;;;;;;18.00;58.59;99497.41;5010268;28;20021;-76
2022/04/10 05:08:58;;;;;;;25.25;7.55;;;;;;;18.03;58.52;99486.13;5011272;28;20025;-76
2022/04/10 05:11:23;;;;;;;27.80;9.05;;;;;;;18.03;58.50;99481.53;5011323;28;20040;-76
2022/04/10 05:13:49;;;;;;;40.08;14.35;;;;;;;17.88;58.50;99483.53;5011114;28;20120;-76
2022/04/10 05:16:17;;;;;;;46.08;16.83;;;;;;;17.94;58.16;99482.75;5009833;28;20112;-76
2022/04/10 05:18:43;;;;;;;39.67;17.55;;;;;;;17.97;57.44;99476.06;5009639;28;20510;-76
2022/04/10 05:21:08;;;;;;;43.17;17.00;;;;;;;17.89;57.55;99475.16;5010045;28;20120;-76
2022/04/10 05:23:34;;;;;;;40.83;13.68;;;;;;;17.63;58.09;99475.00;5011703;28;20408;-77
2022/04/10 05:26:00;;;;;;;40.58;15.90;;;;;;;17.67;58.44;99492.59;5010161;28;20048;-77
2022/04/10 05:28:27;;;;;;;49.92;17.20;;;;;;;17.76;58.20;99488.69;5010180;28;20415;-77
2022/04/10 05:30:53;;;;;;;36.42;16.88;;;;;;;17.73;58.36;99496.41;5010936;28;20064;-77
2022/04/10 05:33:19;;;;;;;50.00;17.83;;;;;;;17.74;58.18;99496.19;5011024;28;20038;-76
2022/04/10 05:35:44;;;;;;;47.30;17.20;;;;;;;17.72;57.97;99483.84;5011388;28;20480;-76
2022/04/10 05:38:11;;;;;;;55.50;16.50;;;;;;;17.74;57.82;99487.19;5011396;28;20143;-77
2022/04/10 05:40:36;;;;;;;42.20;16.38;;;;;;;17.77;58.04;99492.22;4993828;28;20034;-75
2022/04/10 05:43:02;;;;;;;29.23;14.73;;;;;;;17.75;58.08;99488.88;4994063;28;20492;-77
2022/04/10 05:45:27;;;;;;;43.75;14.73;;;;;;;17.79;57.99;99491.03;5011910;28;20022;-76
2022/04/10 05:47:53;;;;;;;48.35;16.00;;;;;;;17.94;57.81;99499.91;5013748;28;20492;-78
2022/04/10 05:50:20;;;;;;;39.13;15.75;;;;;;;18.03;57.60;99497.03;5014872;28;20014;-76
2022/04/10 05:52:47;;;;;;;38.80;14.60;;;;;;;18.04;57.59;99502.25;4998280;28;20056;-76
2022/04/10 05:55:15;;;;;;;51.30;14.43;;;;;;;18.07;57.26;99493.69;5014371;28;20476;-77
2022/04/10 05:57:42;;;;;;;40.90;12.88;;;;;;;18.13;57.33;99481.19;5015189;28;20057;-75
2022/04/10 06:00:13;;;;;;;31.75;14.13;;;;;;;18.21;57.13;99473.69;5014585;28;20037;-78
2022/04/10 06:02:39;;;;;;;29.50;13.55;;;;;;;18.20;56.81;99477.44;5004474;28;20021;-77
2022/04/10 06:05:06;;;;;;;26.90;11.88;;;;;;;18.30;57.04;99472.47;5015111;28;20026;-77
2022/04/10 06:07:33;;;;;;;49.13;15.15;;;;;;;18.41;57.04;99465.59;5013770;28;20042;-75
2022/04/10 06:10:02;;;;;;;33.03;13.15;;;;;;;18.40;56.78;99462.06;5009836;28;20068;-76
2022/04/10 06:12:30;;;;;;;40.50;14.45;;;;;;;18.54;56.44;99462.13;5013885;28;20428;-75
2022/04/10 06:14:55;;;;;;;43.15;13.82;;;;;;;18.68;56.18;99459.25;5030409;28;20022;-76
2022/04/10 06:17:21;;;;;;;29.02;12.88;;;;;;;18.75;55.88;99453.78;5014196;28;20108;-75
2022/04/10 06:19:47;;;;;;;50.92;15.07;;;;;;;18.74;55.82;99447.53;5016930;28;20029;-75
2022/04/10 06:22:14;;;;;;;37.42;13.82;;;;;;;18.90;55.59;99451.72;5027344;28;20056;-76
2022/04/10 06:24:42;;;;;;;38.70;14.70;;;;;;;19.11;55.24;99459.72;5014970;28;20018;-76
2022/04/10 06:27:08;;;;;;;33.70;12.48;;;;;;;19.29;54.86;99457.25;5014237;28;20064;-75
2022/04/10 06:29:34;;;;;;;37.90;11.90;;;;;;;19.43;54.15;99461.69;5014111;28;20036;-76
2022/04/10 06:32:00;;;;;;;35.03;10.40;;;;;;;19.59;53.42;99457.69;4997178;28;20030;-76
2022/04/10 06:34:26;;;;;;;31.25;11.93;;;;;;;19.75;52.88;99459.13;5025194;28;20419;-76
2022/04/10 06:36:51;;;;;;;33.83;11.43;;;;;;;19.91;52.84;99455.94;5013333;28;20022;-76
2022/04/10 06:39:18;;;;;;;32.53;11.90;;;;;;;19.92;52.32;99453.00;5022854;28;20037;-76
2022/04/10 06:41:44;;;;;;;36.85;11.63;;;;;;;19.88;52.09;99440.00;5009098;28;20033;-79
2022/04/10 06:44:10;;;;;;;41.10;11.88;;;;;;;19.87;52.31;99458.28;5014342;28;20526;-82
2022/04/10 06:46:36;;;;;;;30.20;9.93;;;;;;;19.92;52.14;99463.09;5025855;28;20029;-85
2022/04/10 06:49:02;;;;;;;28.58;9.85;;;;;;;19.95;51.92;99466.22;5015887;28;20060;-81
2022/04/10 06:51:28;;;;;;;27.05;12.93;;;;;;;19.92;52.08;99474.00;5024008;28;20026;-83
2022/04/10 06:53:55;;;;;;;34.03;12.23;;;;;;;19.80;51.90;99460.19;5014687;28;20021;-82
2022/04/10 06:56:20;;;;;;;32.10;12.50;;;;;;;19.84;51.55;99482.44;5013663;28;20469;-80
2022/04/10 06:58:46;;;;;;;32.90;12.20;;;;;;;19.85;51.24;99475.91;5014447;28;20483;-80
2022/04/10 07:01:12;;;;;;;33.35;13.20;;;;;;;19.96;51.50;99475.25;5046959;28;20415;-81
2022/04/10 07:03:37;;;;;;;29.50;11.48;;;;;;;19.99;51.79;99463.91;5013840;28;20400;-79
2022/04/10 07:06:03;;;;;;;39.78;12.15;;;;;;;20.17;51.17;99460.50;5015259;28;20018;-81
2022/04/10 07:08:29;;;;;;;30.23;11.07;;;;;;;20.30;51.02;99458.63;5013813;28;20474;-80
2022/04/10 07:10:55;;;;;;;31.00;10.07;;;;;;;20.36;50.58;99457.75;4998240;28;20029;-83
2022/04/10 07:13:22;;;;;;;24.70;6.95;;;;;;;20.04;49.64;99434.94;5015592;28;20058;-83
2022/04/10 07:15:52;;;;;;;14.13;6.97;;;;;;;20.08;49.53;99440.78;5014878;28;20041;-84
2022/04/10 07:18:19;;;;;;;29.02;9.75;;;;;;;20.12;49.51;99452.13;5014089;28;20026;-78
2022/04/10 07:20:46;;;;;;;25.05;7.25;;;;;;;20.18;48.96;99440.34;5013683;28;20480;-78
2022/04/10 07:23:46;;;;;;;23.05;7.32;;;;;;;20.17;49.40;99450.44;5014295;28;20459;-78
2022/04/10 07:26:03;;;;;;;21.67;6.57;;;;;;;20.03;49.63;99460.53;5012032;28;20131;-78
2022/04/10 07:28:29;;;;;;;18.50;6.60;;;;;;;19.98;49.82;99464.97;5012689;28;20437;-77
2022/04/10 07:30:54;;;;;;;18.85;6.53;;;;;;;19.97;50.12;99466.84;5012422;28;20045;-80
2022/04/10 07:33:20;;;;;;;27.65;8.57;;;;;;;19.92;50.67;99484.91;5013399;28;20095;-79
2022/04/10 07:35:46;;;;;;;18.38;7.82;;;;;;;20.03;51.06;99482.38;5014277;28;20115;-78
2022/04/10 07:38:12;;;;;;;32.22;9.32;;;;;;;19.92;51.03;99477.56;5021087;28;20026;-78
2022/04/10 07:40:40;;;;;;;26.10;8.75;;;;;;;19.74;50.92;99476.56;5013768;28;20435;-78
2022/04/10 07:43:07;;;;;;;20.85;7.50;;;;;;;19.88;50.56;99489.13;5012176;28;20061;-79
2022/04/10 07:48:18;;;;;;;23.33;7.47;;;;;;;19.75;51.01;99510.97;4999091;28;20096;-79
2022/04/10 07:50:43;;;;;;;23.17;7.85;;;;;;;19.69;51.09;99514.56;5013730;28;20026;-79
2022/04/10 07:53:09;;;;;;;23.65;7.15;;;;;;;19.58;50.40;99518.72;5013456;28;20029;-79
2022/04/10 07:55:35;;;;;;;17.30;7.57;;;;;;;19.54;50.58;99525.66;5013491;28;20030;-79
2022/04/10 07:58:00;;;;;;;20.50;7.50;;;;;;;19.73;50.24;99505.72;5013261;28;20030;-79
2022/04/10 08:00:26;;;;;;;18.83;6.03;;;;;;;19.84;49.83;99510.56;5013307;28;20030;-79
2022/04/10 08:02:52;;;;;;;18.48;5.78;;;;;;;19.91;50.22;99513.25;5011929;28;20092;-79
2022/04/10 08:05:19;;;;;;;32.17;10.68;;;;;;;20.04;49.54;99510.50;5013567;28;20052;-79
2022/04/10 08:07:46;;;;;;;13.40;5.22;;;;;;;20.10;49.93;99509.66;5013581;28;20030;-78
2022/04/10 08:10:13;;;;;;;21.35;5.72;;;;;;;20.23;49.59;99520.56;5012149;28;20129;-79
2022/04/10 08:12:42;;;;;;;19.92;6.35;;;;;;;20.38;49.49;99502.06;5021194;28;20033;-78
2022/04/10 08:15:09;;;;;;;16.15;6.18;;;;;;;20.53;49.05;99499.06;5029396;28;20042;-78
2022/04/10 08:17:35;;;;;;;25.38;5.85;;;;;;;20.60;48.80;99505.34;5012252;28;20037;-78
2022/04/10 08:20:04;;;;;;;12.90;5.45;;;;;;;20.70;48.51;99504.88;5011914;28;20034;-78
2022/04/10 08:22:34;;;;;;;15.40;5.32;;;;;;;20.90;48.04;99505.59;5013057;28;20029;-79
2022/04/10 08:25:07;;;;;;;19.05;5.63;;;;;;;21.02;47.92;99501.13;5011076;28;20396;-78
2022/04/10 08:27:33;;;;;;;17.83;5.80;;;;;;;21.20;47.28;99505.88;5012679;28;20132;-79
2022/04/10 08:30:00;;;;;;;24.55;6.57;;;;;;;21.36;46.85;99513.56;5013019;28;20021;-78
2022/04/10 08:32:25;;;;;;;18.95;6.13;;;;;;;21.62;46.24;99511.44;5012332;28;20539;-78
2022/04/10 08:34:51;;;;;;;14.57;5.38;;;;;;;21.91;45.26;99503.66;5012872;28;20040;-78
2022/04/10 08:37:17;;;;;;;12.10;5.03;;;;;;;22.00;45.03;99507.78;5012552;28;20029;-78
2022/04/10 08:39:43;;;;;;;19.77;5.25;;;;;;;22.09;45.03;99499.03;5011458;28;20025;-78
2022/04/10 08:42:09;;;;;;;21.23;5.07;;;;;;;22.01;45.22;99487.56;5011348;28;20022;-77
2022/04/10 08:44:37;;;;;;;18.70;6.07;;;;;;;22.13;44.98;99491.22;5012649;28;20025;-78
2022/04/10 08:47:05;;;;;;;13.23;4.68;;;;;;;22.39;44.54;99488.16;5011373;28;20044;-79
2022/04/10 08:49:31;;;;;;;17.42;5.18;;;;;;;22.04;44.54;99487.09;5010637;28;20519;-78
2022/04/10 08:51:58;;;;;;;24.70;6.10;;;;;;;21.88;44.89;99476.69;5012172;28;20504;-78
2022/04/10 08:54:24;;;;;;;28.10;5.40;;;;;;;22.13;44.89;99483.00;5012579;28;20025;-79
2022/04/10 08:56:53;;;;;;;16.77;5.38;;;;;;;22.35;44.67;99478.75;5012602;28;20026;-79
2022/04/10 08:59:20;;;;;;;19.63;6.00;;;;;;;22.39;44.28;99479.94;5012681;28;20036;-79
2022/04/10 09:01:46;;;;;;;18.00;7.28;;;;;;;22.00;45.06;99486.72;5020035;28;20120;-80
2022/04/10 09:04:14;;;;;;;15.38;6.15;;;;;;;21.97;45.26;99480.84;5020608;28;20041;-77
2022/04/10 09:06:40;;;;;;;19.50;5.63;;;;;;;21.73;45.51;99484.41;5020387;28;20036;-79
2022/04/10 09:09:17;;;;;;;17.38;5.70;;;;;;;21.74;45.53;99481.47;5019417;28;20049;-78
2022/04/10 09:11:43;;;;;;;19.67;5.88;;;;;;;21.77;45.83;99491.97;5010426;28;20475;-79
2022/04/10 09:14:09;;;;;;;22.00;7.45;;;;;;;22.02;45.67;99486.47;5012011;28;20491;-78
2022/04/10 09:16:34;;;;;;;20.88;5.82;;;;;;;22.07;45.33;99492.13;5020045;28;20058;-78
2022/04/10 09:19:09;;;;;;;21.88;6.43;;;;;;;22.04;45.68;99498.06;5011960;28;20030;-78
2022/04/10 09:21:36;;;;;;;22.05;7.25;;;;;;;21.83;46.15;99490.22;5011889;28;20025;-78
2022/04/10 09:24:10;;;;;;;24.75;7.90;;;;;;;21.85;46.11;99469.78;5011923;28;20032;-78
2022/04/10 09:26:57;;;;;;;27.08;7.28;;;;;;;21.68;46.75;99494.13;5011714;28;20112;-77
2022/04/10 09:29:25;;;;;;;20.67;8.07;;;;;;;21.64;47.10;99490.19;5011662;28;20025;-78
2022/04/10 09:31:57;;;;;;;21.92;9.07;;;;;;;21.90;47.02;99485.53;4994334;28;20125;-78
2022/04/10 09:34:25;;;;;;;25.08;7.82;;;;;;;22.03;46.59;99485.41;5010322;28;20429;-80
2022/04/10 09:37:01;;;;;;;22.10;7.72;;;;;;;21.97;46.03;99480.84;4994194;28;20041;-80
2022/04/10 09:39:32;;;;;;;28.35;8.02;;;;;;;22.09;46.02;99481.78;5006243;28;20033;-77
2022/04/10 09:42:10;;;;;;;21.23;7.03;;;;;;;21.96;46.61;99482.75;5011589;28;20033;-77
2022/04/10 09:44:39;;;;;;;26.05;8.32;;;;;;;21.89;46.91;99483.88;5011589;28;20034;-78
2022/04/10 09:47:10;;;;;;;25.75;8.43;;;;;;;21.74;47.52;99488.84;5010324;28;20026;-77
2022/04/10 09:49:36;;;;;;;19.60;7.80;;;;;;;21.75;47.27;99479.53;5011228;28;20022;-79
2022/04/10 09:52:17;;;;;;;23.95;7.80;;;;;;;21.76;47.34;99481.22;5010658;28;20057;-78
2022/04/10 09:54:47;;;;;;;22.05;7.32;;;;;;;21.66;47.81;99490.78;4994267;28;20060;-78
2022/04/10 09:57:20;;;;;;;20.48;8.05;;;;;;;21.48;47.95;99489.91;4994201;28;20025;-78
2022/04/10 09:59:53;;;;;;;26.60;7.85;;;;;;;21.38;48.11;99493.13;5010129;28;20034;-78
2022/04/10 10:02:23;;;;;;;21.33;8.23;;;;;;;21.29;48.40;99491.72;5011518;28;20077;-78
2022/04/10 10:04:49;;;;;;;21.08;7.55;;;;;;;21.06;48.80;99494.16;4999110;28;20025;-78
2022/04/10 10:07:18;;;;;;;19.45;7.88;;;;;;;21.11;49.15;99491.63;5029785;28;20400;-78
2022/04/10 10:09:48;;;;;;;20.48;8.50;;;;;;;21.25;48.61;99493.25;5010076;28;20064;-78
2022/04/10 10:12:15;;;;;;;17.05;7.78;;;;;;;20.93;49.28;99481.41;5010330;28;20116;-79
2022/04/10 10:14:42;;;;;;;24.45;8.25;;;;;;;20.75;49.53;99475.84;5011362;28;20026;-79
2022/04/10 10:17:09;;;;;;;23.75;8.35;;;;;;;20.68;49.96;99480.50;5010151;28;20626;-78
2022/04/10 10:19:41;;;;;;;26.63;8.32;;;;;;;20.63;50.07;99475.69;5011396;28;20026;-79
2022/04/10 10:22:10;;;;;;;19.98;7.63;;;;;;;20.36;50.42;99485.06;5011775;28;20117;-78
2022/04/10 10:24:54;;;;;;;29.95;6.97;;;;;;;20.25;51.14;99477.47;5010100;28;20115;-78
2022/04/10 10:27:37;;;;;;;15.48;6.88;;;;;;;19.98;51.57;99484.06;5010007;28;20386;-78
2022/04/10 10:30:10;;;;;;;30.80;8.35;;;;;;;19.93;51.75;99486.59;5009854;28;20547;-78
2022/04/10 10:32:38;;;;;;;;;;;;;;;19.82;51.92;99489.97;5011652;28;20026;-78
2022/04/10 10:35:10;;;;;;;22.17;7.90;;;;;;;19.60;52.43;99497.53;5014789;28;19909;-80
2022/04/10 10:37:49;;;;;;;25.83;7.95;;;;;;;19.44;53.03;99507.00;5013695;28;20057;-79
2022/04/10 10:40:18;;;;;;;22.55;8.48;;;;;;;19.50;52.77;99497.97;5014756;28;20064;-79
2022/04/10 10:42:47;;;;;;;13.35;7.18;;;;;;;19.51;52.65;99490.59;5013224;28;20034;-79
2022/04/10 10:45:37;;;;;;;26.20;8.70;;;;;;;19.59;53.05;99505.94;5014729;28;20105;-79
2022/04/10 10:48:38;;;;;;;20.88;8.98;;;;;;;19.72;52.81;99503.22;5014236;28;20483;-78
2022/04/10 10:51:13;;;;;;;21.50;8.30;;;;;;;19.43;52.97;99518.09;5014885;28;20089;-79
2022/04/10 10:53:48;;;;;;;22.88;8.88;;;;;;;19.20;53.75;99513.03;5013588;28;20420;-78
2022/04/10 10:56:41;;;;;;;19.90;9.13;;;;;;;18.72;54.90;99519.56;5022127;28;20018;-78
2022/04/10 10:59:33;;;;;;;21.48;9.35;;;;;;;18.55;55.64;99523.72;5014077;28;20141;-78
2022/04/10 11:02:17;;;;;;;21.27;9.57;;;;;;;18.80;54.89;99539.34;5014569;28;20026;-78
2022/04/10 11:04:47;;;;;;;22.95;10.27;;;;;;;18.72;54.93;99541.38;4997118;28;20459;-78
2022/04/10 11:07:27;;;;;;;25.00;9.23;;;;;;;18.68;55.25;99551.84;5014664;28;20033;-81
2022/04/10 11:10:19;;;;;;;19.95;8.50;;;;;;;18.60;55.44;99537.53;4998159;28;20045;-83
2022/04/10 11:12:56;;;;;;;19.17;8.07;;;;;;;18.70;55.56;99548.91;5011853;28;20053;-83
2022/04/10 11:15:28;;;;;;;21.35;7.32;;;;;;;18.66;55.20;99547.63;5018550;28;20014;-82
2022/04/10 11:17:54;;;;;;;25.77;12.07;;;;;;;18.56;55.44;99561.63;5013278;28;20026;-82
2022/04/10 11:20:24;;;;;;;19.60;8.63;;;;;;;18.68;55.29;99561.91;5013076;28;20450;-82
2022/04/10 11:22:57;;;;;;;22.42;7.93;;;;;;;18.58;55.42;99573.16;5011580;28;20030;-85
2022/04/10 11:25:38;;;;;;;34.28;8.98;;;;;;;18.31;56.21;99574.88;5014360;28;20030;-81
2022/04/10 11:28:10;;;;;;;23.38;8.88;;;;;;;18.27;56.39;99570.03;5013458;28;20022;-83
2022/04/10 11:30:43;;;;;;;25.40;9.20;;;;;;;18.07;56.86;99572.59;5002194;28;20033;-81
2022/04/10 11:33:10;;;;;;;17.50;7.55;;;;;;;18.23;56.67;99563.28;5015702;28;20496;-78